sensor_id;sensor_type;location;lat;lon;timestamp;temperature;humidity
9977;DHT22;5029;47.378;11.776;2022-09-13T00:05:01;10.70;99.90
9977;DHT22;5029;47.378;11.776;2022-09-13T00:10:05;10.70;99.90
9977;DHT22;5029;47.378;11.776;2022-09-13T00:15:13;10.80;99.90
9977;DHT22;5029;47.378;11.776;2022-09-13T00:20:17;10.80;99.90
9977;DHT22;5029;47.378;11.776;2022-09-13T00:25:24;10.70;99.90
9977;DHT22;5029;47.378;11.776;2022-09-13T00:30:33;10.30;99.90
9977;DHT22;5029;47.378;11.776;2022-09-13T00:35:40;9.70;99.90
9977;DHT22;5029;47.378;11.776;2022-09-13T00:40:44;9.60;99.90
9977;DHT22;5029;47.378;11.776;2022-09-13T00:45:54;10.40;99.90
9977;DHT22;5029;47.378;11.776;2022-09-13T00:50:59;10.40;99.90
9977;DHT22;5029;47.378;11.776;2022-09-13T00:56:07;9.80;99.90
9977;DHT22;5029;47.378;11.776;2022-09-13T01:01:22;10.00;99.90
9977;DHT22;5029;47.378;11.776;2022-09-13T01:06:36;9.50;99.90
9977;DHT22;5029;47.378;11.776;2022-09-13T01:11:47;9.70;99.90
9977;DHT22;5029;47.378;11.776;2022-09-13T01:17:00;9.90;99.90
9977;DHT22;5029;47.378;11.776;2022-09-13T01:28:31;9.60;99.90
9977;DHT22;5029;47.378;11.776;2022-09-13T01:34:05;9.80;99.90
9977;DHT22;5029;47.378;11.776;2022-09-13T01:39:36;9.30;99.90
9977;DHT22;5029;47.378;11.776;2022-09-13T01:45:03;9.70;99.90
9977;DHT22;5029;47.378;11.776;2022-09-13T01:50:20;9.10;99.90
9977;DHT22;5029;47.378;11.776;2022-09-13T01:55:49;9.00;99.90
9977;DHT22;5029;47.378;11.776;2022-09-13T02:01:06;9.40;99.90
9977;DHT22;5029;47.378;11.776;2022-09-13T02:06:20;9.60;99.90
9977;DHT22;5029;47.378;11.776;2022-09-13T02:11:32;9.40;99.90
9977;DHT22;5029;47.378;11.776;2022-09-13T02:17:05;9.20;99.90
9977;DHT22;5029;47.378;11.776;2022-09-13T02:22:24;8.80;99.90
9977;DHT22;5029;47.378;11.776;2022-09-13T02:27:38;9.10;99.90
9977;DHT22;5029;47.378;11.776;2022-09-13T02:32:55;9.50;99.90
9977;DHT22;5029;47.378;11.776;2022-09-13T02:38:10;9.50;99.90
9977;DHT22;5029;47.378;11.776;2022-09-13T02:43:26;9.00;99.90
9977;DHT22;5029;47.378;11.776;2022-09-13T02:48:40;9.10;99.90
9977;DHT22;5029;47.378;11.776;2022-09-13T02:53:54;8.90;99.90
9977;DHT22;5029;47.378;11.776;2022-09-13T02:59:12;8.70;99.90
9977;DHT22;5029;47.378;11.776;2022-09-13T03:04:36;8.60;99.90
9977;DHT22;5029;47.378;11.776;2022-09-13T03:09:50;9.10;99.90
9977;DHT22;5029;47.378;11.776;2022-09-13T03:15:12;9.00;99.90
9977;DHT22;5029;47.378;11.776;2022-09-13T03:20:25;9.00;99.90
9977;DHT22;5029;47.378;11.776;2022-09-13T03:25:51;8.60;99.90
9977;DHT22;5029;47.378;11.776;2022-09-13T03:31:08;8.70;99.90
9977;DHT22;5029;47.378;11.776;2022-09-13T03:36:19;8.70;99.90
9977;DHT22;5029;47.378;11.776;2022-09-13T03:41:46;8.40;99.90
9977;DHT22;5029;47.378;11.776;2022-09-13T03:52:50;8.50;99.90
9977;DHT22;5029;47.378;11.776;2022-09-13T03:58:24;8.10;99.90
9977;DHT22;5029;47.378;11.776;2022-09-13T04:04:04;8.40;99.90
9977;DHT22;5029;47.378;11.776;2022-09-13T04:09:23;8.50;99.90
9977;DHT22;5029;47.378;11.776;2022-09-13T04:14:47;8.50;99.90
9977;DHT22;5029;47.378;11.776;2022-09-13T04:26:05;9.00;99.90
9977;DHT22;5029;47.378;11.776;2022-09-13T04:31:27;8.50;99.90
9977;DHT22;5029;47.378;11.776;2022-09-13T04:36:55;8.70;99.90
9977;DHT22;5029;47.378;11.776;2022-09-13T04:42:40;8.30;99.90
9977;DHT22;5029;47.378;11.776;2022-09-13T04:48:21;8.60;99.90
9977;DHT22;5029;47.378;11.776;2022-09-13T04:59:26;8.80;99.90
9977;DHT22;5029;47.378;11.776;2022-09-13T05:04:48;8.60;99.90
9977;DHT22;5029;47.378;11.776;2022-09-13T05:09:52;8.30;99.90
9977;DHT22;5029;47.378;11.776;2022-09-13T05:14:56;8.40;99.90
9977;DHT22;5029;47.378;11.776;2022-09-13T05:20:01;8.30;99.90
9977;DHT22;5029;47.378;11.776;2022-09-13T05:25:06;8.40;99.90
9977;DHT22;5029;47.378;11.776;2022-09-13T05:30:11;8.50;99.90
9977;DHT22;5029;47.378;11.776;2022-09-13T05:35:16;8.40;99.90
9977;DHT22;5029;47.378;11.776;2022-09-13T05:40:20;8.80;99.90
9977;DHT22;5029;47.378;11.776;2022-09-13T05:45:24;8.50;99.90
9977;DHT22;5029;47.378;11.776;2022-09-13T05:50:29;8.70;99.90
9977;DHT22;5029;47.378;11.776;2022-09-13T05:55:53;8.50;99.90
9977;DHT22;5029;47.378;11.776;2022-09-13T06:00:56;8.40;99.90
9977;DHT22;5029;47.378;11.776;2022-09-13T06:06:02;8.80;99.90
9977;DHT22;5029;47.378;11.776;2022-09-13T06:11:08;8.90;99.90
9977;DHT22;5029;47.378;11.776;2022-09-13T06:16:13;8.80;99.90
9977;DHT22;5029;47.378;11.776;2022-09-13T06:21:20;9.00;99.90
9977;DHT22;5029;47.378;11.776;2022-09-13T06:26:29;8.40;99.90
9977;DHT22;5029;47.378;11.776;2022-09-13T06:31:33;8.60;99.90
9977;DHT22;5029;47.378;11.776;2022-09-13T06:36:39;8.60;99.90
9977;DHT22;5029;47.378;11.776;2022-09-13T06:41:42;8.60;99.90
9977;DHT22;5029;47.378;11.776;2022-09-13T06:46:46;8.40;99.90
9977;DHT22;5029;47.378;11.776;2022-09-13T06:51:51;8.60;99.90
9977;DHT22;5029;47.378;11.776;2022-09-13T06:56:55;8.70;99.90
9977;DHT22;5029;47.378;11.776;2022-09-13T07:01:58;8.80;99.90
9977;DHT22;5029;47.378;11.776;2022-09-13T07:07:07;8.70;99.90
9977;DHT22;5029;47.378;11.776;2022-09-13T07:12:10;8.70;99.90
9977;DHT22;5029;47.378;11.776;2022-09-13T07:17:19;9.40;99.90
9977;DHT22;5029;47.378;11.776;2022-09-13T07:22:24;9.40;99.90
9977;DHT22;5029;47.378;11.776;2022-09-13T07:27:29;9.80;99.90
9977;DHT22;5029;47.378;11.776;2022-09-13T07:32:32;10.20;99.90
9977;DHT22;5029;47.378;11.776;2022-09-13T07:37:37;10.20;99.90
9977;DHT22;5029;47.378;11.776;2022-09-13T07:42:43;10.60;99.90
9977;DHT22;5029;47.378;11.776;2022-09-13T07:47:47;10.70;99.90
9977;DHT22;5029;47.378;11.776;2022-09-13T07:52:56;11.00;99.90
9977;DHT22;5029;47.378;11.776;2022-09-13T07:58:00;11.20;99.90
9977;DHT22;5029;47.378;11.776;2022-09-13T08:03:03;11.50;99.90
9977;DHT22;5029;47.378;11.776;2022-09-13T08:08:08;12.00;99.90
9977;DHT22;5029;47.378;11.776;2022-09-13T08:13:14;12.50;99.90
9977;DHT22;5029;47.378;11.776;2022-09-13T08:18:18;12.40;99.90
9977;DHT22;5029;47.378;11.776;2022-09-13T08:23:23;12.70;99.90
9977;DHT22;5029;47.378;11.776;2022-09-13T08:28:26;13.10;99.90
9977;DHT22;5029;47.378;11.776;2022-09-13T08:33:30;13.50;99.90
9977;DHT22;5029;47.378;11.776;2022-09-13T08:38:35;13.50;99.90
9977;DHT22;5029;47.378;11.776;2022-09-13T08:43:47;13.70;99.90
9977;DHT22;5029;47.378;11.776;2022-09-13T08:48:54;14.00;99.90
9977;DHT22;5029;47.378;11.776;2022-09-13T08:54:02;14.40;99.90
9977;DHT22;5029;47.378;11.776;2022-09-13T08:59:31;14.70;99.90
9977;DHT22;5029;47.378;11.776;2022-09-13T09:04:40;14.80;99.90
9977;DHT22;5029;47.378;11.776;2022-09-13T09:09:52;15.00;99.90
9977;DHT22;5029;47.378;11.776;2022-09-13T09:15:07;14.80;99.90
9977;DHT22;5029;47.378;11.776;2022-09-13T09:20:25;15.40;99.90
9977;DHT22;5029;47.378;11.776;2022-09-13T09:25:33;15.50;99.90
9977;DHT22;5029;47.378;11.776;2022-09-13T09:30:42;15.70;99.90
9977;DHT22;5029;47.378;11.776;2022-09-13T09:35:56;16.30;99.90
9977;DHT22;5029;47.378;11.776;2022-09-13T09:41:09;16.60;99.90
9977;DHT22;5029;47.378;11.776;2022-09-13T09:46:15;16.80;99.90
9977;DHT22;5029;47.378;11.776;2022-09-13T09:51:22;17.20;99.90
9977;DHT22;5029;47.378;11.776;2022-09-13T09:56:31;17.50;99.90
9977;DHT22;5029;47.378;11.776;2022-09-13T10:01:38;17.50;99.90
9977;DHT22;5029;47.378;11.776;2022-09-13T10:06:43;17.30;99.90
9977;DHT22;5029;47.378;11.776;2022-09-13T10:11:51;17.70;99.90
9977;DHT22;5029;47.378;11.776;2022-09-13T10:17:16;17.60;99.90
9977;DHT22;5029;47.378;11.776;2022-09-13T10:22:21;17.90;99.90
9977;DHT22;5029;47.378;11.776;2022-09-13T10:27:34;17.90;99.90
9977;DHT22;5029;47.378;11.776;2022-09-13T10:32:38;18.00;99.90
9977;DHT22;5029;47.378;11.776;2022-09-13T10:37:42;17.80;99.90
9977;DHT22;5029;47.378;11.776;2022-09-13T10:42:52;18.20;99.90
9977;DHT22;5029;47.378;11.776;2022-09-13T10:48:02;19.30;99.90
9977;DHT22;5029;47.378;11.776;2022-09-13T10:53:29;19.00;99.90
9977;DHT22;5029;47.378;11.776;2022-09-13T10:58:36;19.50;99.90
9977;DHT22;5029;47.378;11.776;2022-09-13T11:09:10;19.30;99.90
9977;DHT22;5029;47.378;11.776;2022-09-13T11:14:29;19.50;99.90
9977;DHT22;5029;47.378;11.776;2022-09-13T11:25:22;19.20;99.90
9977;DHT22;5029;47.378;11.776;2022-09-13T11:30:36;19.60;99.90
9977;DHT22;5029;47.378;11.776;2022-09-13T11:35:55;19.80;99.90
9977;DHT22;5029;47.378;11.776;2022-09-13T11:41:16;20.40;99.90
9977;DHT22;5029;47.378;11.776;2022-09-13T11:46:35;20.50;99.90
9977;DHT22;5029;47.378;11.776;2022-09-13T11:51:47;20.70;1.00
9977;DHT22;5029;47.378;11.776;2022-09-13T11:56:56;21.10;99.90
9977;DHT22;5029;47.378;11.776;2022-09-13T12:02:13;20.40;99.90
9977;DHT22;5029;47.378;11.776;2022-09-13T12:07:28;20.90;1.00
9977;DHT22;5029;47.378;11.776;2022-09-13T12:12:34;21.10;1.00
9977;DHT22;5029;47.378;11.776;2022-09-13T12:17:42;21.50;1.00
9977;DHT22;5029;47.378;11.776;2022-09-13T12:22:47;21.90;1.00
9977;DHT22;5029;47.378;11.776;2022-09-13T12:27:58;22.20;1.00
9977;DHT22;5029;47.378;11.776;2022-09-13T12:33:08;22.20;1.00
9977;DHT22;5029;47.378;11.776;2022-09-13T12:38:28;22.60;1.00
9977;DHT22;5029;47.378;11.776;2022-09-13T12:49:35;23.20;1.00
9977;DHT22;5029;47.378;11.776;2022-09-13T12:55:02;22.50;1.00
9977;DHT22;5029;47.378;11.776;2022-09-13T13:00:33;22.40;1.00
9977;DHT22;5029;47.378;11.776;2022-09-13T13:05:47;22.80;1.00
9977;DHT22;5029;47.378;11.776;2022-09-13T13:11:04;22.80;1.00
9977;DHT22;5029;47.378;11.776;2022-09-13T13:16:24;22.60;1.00
9977;DHT22;5029;47.378;11.776;2022-09-13T13:21:32;22.30;1.00
9977;DHT22;5029;47.378;11.776;2022-09-13T13:26:47;22.70;1.00
9977;DHT22;5029;47.378;11.776;2022-09-13T13:32:12;23.00;1.00
9977;DHT22;5029;47.378;11.776;2022-09-13T13:37:35;23.10;1.00
9977;DHT22;5029;47.378;11.776;2022-09-13T13:42:40;21.60;1.00
9977;DHT22;5029;47.378;11.776;2022-09-13T13:48:10;21.50;1.00
9977;DHT22;5029;47.378;11.776;2022-09-13T13:53:34;22.30;1.00
9977;DHT22;5029;47.378;11.776;2022-09-13T13:58:46;22.70;1.00
9977;DHT22;5029;47.378;11.776;2022-09-13T14:04:16;23.40;1.00
9977;DHT22;5029;47.378;11.776;2022-09-13T14:09:37;23.70;1.00
9977;DHT22;5029;47.378;11.776;2022-09-13T14:14:56;24.40;1.00
9977;DHT22;5029;47.378;11.776;2022-09-13T14:20:04;25.10;1.00
9977;DHT22;5029;47.378;11.776;2022-09-13T14:25:21;25.50;1.00
9977;DHT22;5029;47.378;11.776;2022-09-13T14:30:28;25.40;1.00
9977;DHT22;5029;47.378;11.776;2022-09-13T14:35:35;25.40;1.00
9977;DHT22;5029;47.378;11.776;2022-09-13T14:40:41;25.10;1.00
9977;DHT22;5029;47.378;11.776;2022-09-13T14:45:52;24.80;1.00
9977;DHT22;5029;47.378;11.776;2022-09-13T14:51:01;24.00;1.00
9977;DHT22;5029;47.378;11.776;2022-09-13T14:56:14;24.20;1.00
9977;DHT22;5029;47.378;11.776;2022-09-13T15:01:26;24.10;1.00
9977;DHT22;5029;47.378;11.776;2022-09-13T15:06:32;23.80;1.00
9977;DHT22;5029;47.378;11.776;2022-09-13T15:11:55;23.70;1.00
9977;DHT22;5029;47.378;11.776;2022-09-13T15:17:06;22.60;1.00
9977;DHT22;5029;47.378;11.776;2022-09-13T15:22:18;21.80;1.00
9977;DHT22;5029;47.378;11.776;2022-09-13T15:27:29;21.40;1.00
9977;DHT22;5029;47.378;11.776;2022-09-13T15:32:39;21.00;1.00
9977;DHT22;5029;47.378;11.776;2022-09-13T15:37:43;20.80;1.00
9977;DHT22;5029;47.378;11.776;2022-09-13T15:42:50;20.80;1.00
9977;DHT22;5029;47.378;11.776;2022-09-13T15:47:54;21.00;1.00
9977;DHT22;5029;47.378;11.776;2022-09-13T15:52:59;20.50;1.00
9977;DHT22;5029;47.378;11.776;2022-09-13T15:58:05;20.30;99.90
9977;DHT22;5029;47.378;11.776;2022-09-13T16:03:09;20.70;1.00
9977;DHT22;5029;47.378;11.776;2022-09-13T16:08:12;20.50;1.00
9977;DHT22;5029;47.378;11.776;2022-09-13T16:13:18;20.70;1.00
9977;DHT22;5029;47.378;11.776;2022-09-13T16:18:21;20.50;1.00
9977;DHT22;5029;47.378;11.776;2022-09-13T16:23:25;20.40;1.00
9977;DHT22;5029;47.378;11.776;2022-09-13T16:28:30;20.70;1.00
9977;DHT22;5029;47.378;11.776;2022-09-13T16:33:36;20.80;1.00
9977;DHT22;5029;47.378;11.776;2022-09-13T16:38:41;20.80;1.00
9977;DHT22;5029;47.378;11.776;2022-09-13T16:43:46;20.30;1.00
9977;DHT22;5029;47.378;11.776;2022-09-13T16:48:52;20.00;1.00
9977;DHT22;5029;47.378;11.776;2022-09-13T16:53:57;19.20;99.90
9977;DHT22;5029;47.378;11.776;2022-09-13T16:59:03;19.30;99.90
9977;DHT22;5029;47.378;11.776;2022-09-13T17:04:06;19.40;99.90
9977;DHT22;5029;47.378;11.776;2022-09-13T17:09:12;18.90;99.90
9977;DHT22;5029;47.378;11.776;2022-09-13T17:14:17;18.70;99.90
9977;DHT22;5029;47.378;11.776;2022-09-13T17:19:25;18.80;99.90
9977;DHT22;5029;47.378;11.776;2022-09-13T17:24:29;18.70;99.90
9977;DHT22;5029;47.378;11.776;2022-09-13T17:29:35;18.90;99.90
9977;DHT22;5029;47.378;11.776;2022-09-13T17:34:39;18.80;99.90
9977;DHT22;5029;47.378;11.776;2022-09-13T17:39:42;18.80;99.90
9977;DHT22;5029;47.378;11.776;2022-09-13T17:44:48;18.40;99.90
9977;DHT22;5029;47.378;11.776;2022-09-13T17:49:51;18.40;99.90
9977;DHT22;5029;47.378;11.776;2022-09-13T17:54:55;18.00;99.90
9977;DHT22;5029;47.378;11.776;2022-09-13T18:00:04;17.70;99.90
9977;DHT22;5029;47.378;11.776;2022-09-13T18:05:32;17.60;99.90
9977;DHT22;5029;47.378;11.776;2022-09-13T18:17:15;17.40;99.90
9977;DHT22;5029;47.378;11.776;2022-09-13T18:23:19;17.20;99.90
9977;DHT22;5029;47.378;11.776;2022-09-13T18:28:46;17.20;99.90
9977;DHT22;5029;47.378;11.776;2022-09-13T18:34:35;16.70;99.90
9977;DHT22;5029;47.378;11.776;2022-09-13T18:40:07;16.60;99.90
9977;DHT22;5029;47.378;11.776;2022-09-13T18:45:36;16.10;99.90
9977;DHT22;5029;47.378;11.776;2022-09-13T18:50:44;16.40;99.90
9977;DHT22;5029;47.378;11.776;2022-09-13T18:55:51;16.70;99.90
9977;DHT22;5029;47.378;11.776;2022-09-13T19:07:27;16.50;99.90
9977;DHT22;5029;47.378;11.776;2022-09-13T19:13:56;16.30;99.90
9977;DHT22;5029;47.378;11.776;2022-09-13T19:45:36;16.10;99.90
9977;DHT22;5029;47.378;11.776;2022-09-13T19:51:17;16.10;99.90
9977;DHT22;5029;47.378;11.776;2022-09-13T19:56:38;15.70;99.90
9977;DHT22;5029;47.378;11.776;2022-09-13T20:02:51;15.80;99.90
9977;DHT22;5029;47.378;11.776;2022-09-13T20:08:58;15.50;99.90
9977;DHT22;5029;47.378;11.776;2022-09-13T20:14:41;15.50;99.90
9977;DHT22;5029;47.378;11.776;2022-09-13T20:20:33;15.30;99.90
9977;DHT22;5029;47.378;11.776;2022-09-13T20:26:28;15.20;99.90
9977;DHT22;5029;47.378;11.776;2022-09-13T20:38:14;15.30;99.90
9977;DHT22;5029;47.378;11.776;2022-09-13T20:43:54;15.50;99.90
9977;DHT22;5029;47.378;11.776;2022-09-13T20:49:58;15.50;99.90
9977;DHT22;5029;47.378;11.776;2022-09-13T20:56:07;15.20;99.90
9977;DHT22;5029;47.378;11.776;2022-09-13T21:02:00;15.00;99.90
9977;DHT22;5029;47.378;11.776;2022-09-13T21:08:01;15.00;99.90
9977;DHT22;5029;47.378;11.776;2022-09-13T21:20:11;14.70;99.90
9977;DHT22;5029;47.378;11.776;2022-09-13T21:25:50;14.90;99.90
9977;DHT22;5029;47.378;11.776;2022-09-13T21:31:12;14.90;99.90
9977;DHT22;5029;47.378;11.776;2022-09-13T21:36:44;15.00;99.90
9977;DHT22;5029;47.378;11.776;2022-09-13T21:41:59;15.00;99.90
9977;DHT22;5029;47.378;11.776;2022-09-13T21:47:32;14.70;99.90
9977;DHT22;5029;47.378;11.776;2022-09-13T21:59:03;14.60;99.90
9977;DHT22;5029;47.378;11.776;2022-09-13T22:05:57;14.60;99.90
9977;DHT22;5029;47.378;11.776;2022-09-13T22:10:54;14.60;99.90
9977;DHT22;5029;47.378;11.776;2022-09-13T22:16:42;14.40;99.90
9977;DHT22;5029;47.378;11.776;2022-09-13T22:22:16;14.40;99.90
9977;DHT22;5029;47.378;11.776;2022-09-13T22:27:36;14.50;99.90
9977;DHT22;5029;47.378;11.776;2022-09-13T22:33:23;14.60;99.90
9977;DHT22;5029;47.378;11.776;2022-09-13T22:45:01;13.90;99.90
9977;DHT22;5029;47.378;11.776;2022-09-13T22:51:07;13.80;99.90
9977;DHT22;5029;47.378;11.776;2022-09-13T22:57:20;14.00;99.90
9977;DHT22;5029;47.378;11.776;2022-09-13T23:09:27;14.30;99.90
9977;DHT22;5029;47.378;11.776;2022-09-13T23:15:15;14.20;99.90
9977;DHT22;5029;47.378;11.776;2022-09-13T23:21:00;14.30;99.90
9977;DHT22;5029;47.378;11.776;2022-09-13T23:26:45;14.30;99.90
9977;DHT22;5029;47.378;11.776;2022-09-13T23:32:12;14.40;99.90
9977;DHT22;5029;47.378;11.776;2022-09-13T23:37:24;13.90;99.90
9977;DHT22;5029;47.378;11.776;2022-09-13T23:42:46;13.90;99.90
9977;DHT22;5029;47.378;11.776;2022-09-13T23:53:35;13.90;99.90
